createdAt,value
2023-05-22T00:04:07.738Z,101432.41
2023-05-22T00:09:13.638Z,101419.66
2023-05-22T00:14:16.534Z,101425.53
2023-05-22T00:19:19.142Z,101427.63
2023-05-22T00:24:22.013Z,101437.31
2023-05-22T00:29:24.680Z,101428.63
2023-05-22T00:34:27.400Z,101427.16
2023-05-22T00:39:30.132Z,101421.50
2023-05-22T00:44:32.582Z,101421.75
2023-05-22T00:49:37.447Z,101420.34
2023-05-22T00:54:40.324Z,101392.91
2023-05-22T00:59:43.758Z,101418.78
2023-05-22T01:04:50.519Z,101423.72
2023-05-22T01:09:57.097Z,101417.81
2023-05-22T01:15:22.958Z,101415.38
2023-05-22T01:20:35.248Z,101414.03
2023-05-22T01:25:58.189Z,101408.16
2023-05-22T01:31:03.056Z,101411.09
2023-05-22T01:36:09.390Z,101405.22
2023-05-22T01:41:12.810Z,101403.00
2023-05-22T01:46:16.723Z,101399.16
2023-05-22T01:51:29.710Z,101387.28
2023-05-22T01:57:03.076Z,101400.47
2023-05-22T02:02:07.940Z,101394.91
2023-05-22T02:07:13.169Z,101405.91
2023-05-22T02:12:17.588Z,101405.09
2023-05-22T02:17:20.571Z,101411.53
2023-05-22T02:22:23.376Z,101404.69
2023-05-22T02:27:26.030Z,101402.97
2023-05-22T02:32:33.275Z,101404.69
2023-05-22T02:37:36.339Z,101406.59
2023-05-22T02:42:39.094Z,101402.13
2023-05-22T02:47:41.971Z,101409.16
2023-05-22T02:52:45.516Z,101420.44
2023-05-22T02:57:48.397Z,101416.69
2023-05-22T03:02:51.265Z,101409.13
2023-05-22T03:07:56.904Z,101419.13
2023-05-22T03:13:02.983Z,101406.84
2023-05-22T03:18:06.432Z,101403.91
2023-05-22T03:23:09.285Z,101405.28
2023-05-22T03:28:11.891Z,101389.34
2023-05-22T03:33:16.680Z,101392.94
2023-05-22T03:38:19.570Z,101379.25
2023-05-22T03:43:22.219Z,101387.69
2023-05-22T03:48:25.963Z,101382.59
2023-05-22T03:53:29.682Z,101376.22
2023-05-22T03:58:32.309Z,101378.69
2023-05-22T04:03:35.119Z,101377.25
2023-05-22T04:08:39.074Z,101372.13
2023-05-22T04:13:42.970Z,101369.19
2023-05-22T04:18:45.662Z,101373.13
2023-05-22T04:23:49.742Z,101367.56
2023-05-22T04:28:52.357Z,101362.97
2023-05-22T04:33:56.357Z,101371.16
2023-05-22T04:39:01.038Z,101372.28
2023-05-22T04:44:04.671Z,101374.00
2023-05-22T04:49:07.447Z,101368.66
2023-05-22T04:54:10.618Z,101369.31
2023-05-22T04:59:16.587Z,101381.75
2023-05-22T05:04:19.896Z,101380.72
2023-05-22T05:09:22.549Z,101386.06
2023-05-22T05:14:25.933Z,101375.75
2023-05-22T05:19:28.874Z,101379.84
2023-05-22T05:24:31.542Z,101385.44
2023-05-22T05:29:34.218Z,101381.25
2023-05-22T05:34:47.710Z,101378.47
2023-05-22T05:40:08.419Z,101368.19
2023-05-22T05:45:14.453Z,101380.69
2023-05-22T05:50:18.446Z,101379.19
2023-05-22T05:55:23.563Z,101380.19
2023-05-22T06:00:26.641Z,101380.19
2023-05-22T06:05:33.723Z,101371.22
2023-05-22T06:10:48.905Z,101355.28
2023-05-22T06:16:07.170Z,101378.50
2023-05-22T06:21:10.825Z,101374.22
2023-05-22T06:26:14.004Z,101379.91
2023-05-22T06:31:18.924Z,101381.22
2023-05-22T06:36:26.745Z,101378.22
2023-05-22T06:41:30.530Z,101362.50
2023-05-22T06:46:33.330Z,101363.41
2023-05-22T06:51:38.917Z,101361.00
2023-05-22T06:56:47.173Z,101362.25
2023-05-22T07:01:53.831Z,101354.78
2023-05-22T07:07:11.852Z,101361.88
2023-05-22T07:12:15.166Z,101361.13
2023-05-22T07:17:20.883Z,101361.22
2023-05-22T07:22:23.717Z,101357.22
2023-05-22T07:27:26.476Z,101358.34
2023-05-22T07:32:30.203Z,101357.34
2023-05-22T07:37:36.763Z,101352.75
2023-05-22T07:42:39.898Z,101349.28
2023-05-22T07:47:44.620Z,101341.41
2023-05-22T07:52:47.397Z,101359.59
2023-05-22T07:57:51.228Z,101349.28
2023-05-22T08:03:02.773Z,101354.16
2023-05-22T08:08:05.568Z,101352.50
2023-05-22T08:13:08.287Z,101351.16
2023-05-22T08:18:14.489Z,101354.16
2023-05-22T08:23:18.871Z,101358.50
2023-05-22T08:28:21.825Z,101358.78
2023-05-22T08:33:24.649Z,101353.06
2023-05-22T08:38:28.709Z,101360.94
2023-05-22T08:43:31.435Z,101353.63
2023-05-22T08:48:34.069Z,101352.53
2023-05-22T08:53:37.892Z,101355.78
2023-05-22T08:58:42.688Z,101349.53
2023-05-22T09:03:47.000Z,101339.50
2023-05-22T09:08:51.360Z,101342.22
2023-05-22T09:14:06.786Z,101341.94
2023-05-22T09:19:09.902Z,101339.22
2023-05-22T09:24:12.477Z,101327.56
2023-05-22T09:29:15.107Z,101327.56
2023-05-22T09:34:17.957Z,101343.56
2023-05-22T09:39:20.695Z,101338.34
2023-05-22T09:44:27.156Z,101336.09
2023-05-22T09:49:30.934Z,101333.69
2023-05-22T09:54:35.247Z,101333.50
2023-05-22T09:59:40.561Z,101337.09
2023-05-22T10:04:45.937Z,101340.81
2023-05-22T10:09:55.136Z,101349.22
2023-05-22T10:14:58.446Z,101341.31
2023-05-22T10:20:08.217Z,101346.25
2023-05-22T10:25:12.024Z,101339.41
2023-05-22T10:30:33.127Z,101350.44
2023-05-22T10:36:09.093Z,101344.88
2023-05-22T10:41:11.909Z,101335.06
2023-05-22T10:46:14.561Z,101340.31
2023-05-22T10:51:24.048Z,101337.41
2023-05-22T10:56:36.477Z,101324.38
2023-05-22T11:01:39.947Z,101332.03
2023-05-22T11:07:09.186Z,101326.78
2023-05-22T11:12:25.960Z,101329.44
2023-05-22T11:17:33.019Z,101335.84
2023-05-22T11:22:38.337Z,101334.28
2023-05-22T11:27:41.841Z,101343.81
2023-05-22T11:32:46.131Z,101341.06
2023-05-22T11:37:50.600Z,101340.22
2023-05-22T11:42:54.382Z,101342.06
2023-05-22T11:47:57.324Z,101340.72
2023-05-22T11:53:00.130Z,101353.34
2023-05-22T11:58:03.228Z,101346.81
2023-05-22T12:03:06.913Z,101349.47
2023-05-22T12:08:09.535Z,101350.22
2023-05-22T12:13:12.172Z,101331.16
2023-05-22T12:18:14.736Z,101345.66
2023-05-22T12:23:30.064Z,101341.88
2023-05-22T12:28:33.665Z,101339.19
2023-05-22T12:33:36.348Z,101345.75
2023-05-22T12:38:42.095Z,101345.25
2023-05-22T12:43:44.768Z,101341.44
2023-05-22T12:48:47.466Z,101337.88
2023-05-22T12:53:50.210Z,101341.44
2023-05-22T12:58:52.963Z,101339.88
2023-05-22T13:03:55.722Z,101349.69
2023-05-22T13:08:58.869Z,101345.63
2023-05-22T13:14:01.490Z,101339.09
2023-05-22T13:19:04.229Z,101342.38
2023-05-22T13:24:07.203Z,101334.22
2023-05-22T13:29:09.832Z,101341.56
2023-05-22T13:34:12.524Z,101337.81
2023-05-22T13:39:16.657Z,101334.06
2023-05-22T13:44:19.882Z,101339.78
2023-05-22T13:49:22.505Z,101345.75
2023-05-22T13:54:25.020Z,101353.09
2023-05-22T13:59:27.591Z,101342.47
2023-05-22T14:04:30.287Z,101353.63
2023-05-22T14:09:51.391Z,101357.94
2023-05-22T14:14:54.074Z,101354.09
2023-05-22T14:19:56.746Z,101354.31
2023-05-22T14:24:59.370Z,101360.75
2023-05-22T14:30:01.979Z,101367.16
2023-05-22T14:35:08.167Z,101366.28
2023-05-22T14:40:11.362Z,101368.47
2023-05-22T14:45:32.998Z,101359.00
2023-05-22T14:50:35.600Z,101363.00
2023-05-22T14:55:38.445Z,101361.81
2023-05-22T15:00:43.027Z,101360.56
2023-05-22T15:05:45.953Z,101371.53
2023-05-22T15:10:48.629Z,101380.38
2023-05-22T15:15:51.270Z,101376.94
2023-05-22T15:20:54.038Z,101375.94
2023-05-22T15:25:56.710Z,101384.47
2023-05-22T15:30:59.317Z,101377.28
2023-05-22T15:36:02.175Z,101385.59
2023-05-22T15:41:04.755Z,101387.19
2023-05-22T15:46:07.449Z,101379.69
2023-05-22T15:51:11.836Z,101388.31
2023-05-22T15:56:14.637Z,101395.53
2023-05-22T16:01:17.267Z,101393.25
2023-05-22T16:06:20.122Z,101397.47
2023-05-22T16:11:23.084Z,101395.06
2023-05-22T16:16:25.942Z,101398.75
2023-05-22T16:21:28.742Z,101397.22
2023-05-22T16:26:31.323Z,101395.44
2023-05-22T16:31:35.896Z,101402.09
2023-05-22T16:36:38.570Z,101398.16
2023-05-22T16:41:41.088Z,101408.31
2023-05-22T16:46:46.580Z,101403.47
2023-05-22T16:51:49.473Z,101406.75
2023-05-22T16:56:52.178Z,101395.88
2023-05-22T17:01:54.826Z,101402.19
2023-05-22T17:06:57.469Z,101404.53
2023-05-22T17:12:00.199Z,101405.84
2023-05-22T17:17:02.974Z,101410.41
2023-05-22T17:22:06.032Z,101419.09
2023-05-22T17:27:09.046Z,101413.94
2023-05-22T17:32:11.858Z,101424.75
2023-05-22T17:37:14.576Z,101420.09
2023-05-22T17:42:18.173Z,101402.41
2023-05-22T17:47:23.263Z,101403.06
2023-05-22T17:52:26.544Z,101405.75
2023-05-22T17:57:29.713Z,101398.97
2023-05-22T18:02:32.589Z,101404.13
2023-05-22T18:07:35.441Z,101373.19
2023-05-22T18:12:38.467Z,101378.00
2023-05-22T18:17:41.703Z,101371.97
2023-05-22T18:22:44.349Z,101378.25
2023-05-22T18:27:47.300Z,101366.22
2023-05-22T18:32:50.181Z,101355.91
2023-05-22T18:37:53.131Z,101342.00
2023-05-22T18:42:55.904Z,101349.59
2023-05-22T18:47:58.593Z,101352.78
2023-05-22T18:53:01.380Z,101352.19
2023-05-22T18:58:04.120Z,101344.09
2023-05-22T19:03:11.598Z,101338.59
2023-05-22T19:08:14.221Z,101341.81
2023-05-22T19:13:16.940Z,101333.50
2023-05-22T19:18:19.720Z,101329.25
2023-05-22T19:23:22.325Z,101334.66
2023-05-22T19:28:27.194Z,101347.16
2023-05-22T19:33:31.642Z,101339.88
2023-05-22T19:38:34.265Z,101328.59
2023-05-22T19:43:37.011Z,101321.34
2023-05-22T19:48:40.560Z,101321.91
2023-05-22T19:53:46.457Z,101330.59
2023-05-22T19:58:49.310Z,101319.28
2023-05-22T20:03:52.347Z,101321.16
2023-05-22T20:08:55.006Z,101323.13
2023-05-22T20:13:57.817Z,101311.19
2023-05-22T20:19:00.640Z,101313.88
2023-05-22T20:24:06.262Z,101318.16
2023-05-22T20:29:08.901Z,101307.19
2023-05-22T20:34:14.930Z,101309.88
2023-05-22T20:39:18.430Z,101309.78
2023-05-22T20:44:25.025Z,101307.50
2023-05-22T20:49:28.289Z,101294.44
2023-05-22T20:54:34.932Z,101304.88
2023-05-22T20:59:38.928Z,101296.56
2023-05-22T21:04:41.600Z,101291.31
2023-05-22T21:09:44.311Z,101280.44
2023-05-22T21:14:47.359Z,101289.09
2023-05-22T21:19:49.990Z,101290.75
2023-05-22T21:24:52.820Z,101295.31
2023-05-22T21:29:57.756Z,101296.13
2023-05-22T21:35:00.361Z,101301.78
2023-05-22T21:40:03.192Z,101308.56
2023-05-22T21:45:08.365Z,101320.41
2023-05-22T21:50:11.508Z,101314.44
2023-05-22T21:55:14.269Z,101317.84
2023-05-22T22:00:17.516Z,101307.84
2023-05-22T22:05:20.190Z,101324.72
2023-05-22T22:10:23.393Z,101315.28
2023-05-22T22:15:36.928Z,101308.03
2023-05-22T22:20:45.053Z,101289.78
2023-05-22T22:25:49.406Z,101297.28
2023-05-22T22:30:57.186Z,101292.25
2023-05-22T22:36:02.905Z,101307.47
2023-05-22T22:41:08.870Z,101302.31
2023-05-22T22:46:12.427Z,101310.63
2023-05-22T22:51:15.165Z,101303.13
2023-05-22T22:56:17.893Z,101310.63
2023-05-22T23:01:20.574Z,101300.06
2023-05-22T23:06:24.167Z,101301.94
2023-05-22T23:11:37.868Z,101293.63
2023-05-22T23:16:43.635Z,101292.81
2023-05-22T23:21:47.394Z,101300.34
2023-05-22T23:26:50.091Z,101293.06
2023-05-22T23:31:54.774Z,101281.22
2023-05-22T23:37:00.593Z,101276.34
2023-05-22T23:42:03.424Z,101276.34
2023-05-22T23:47:06.972Z,101281.22
2023-05-22T23:52:10.397Z,101276.41
2023-05-22T23:57:12.961Z,101272.91
